Time;durP1;ratioP1;P1;durP2;ratioP2;P2;SDS_P1;SDS_P2;PMS_P1;PMS_P2;Temp;Humidity;BMP_temperature;BMP_pressure;BME280_temperature;BME280_humidity;BME280_pressure;Samples;Min_cycle;Max_cycle;Signal;HPM_P1;HPM_P2
2022/06/14 00:01:28;;;;;;;8.35;2.53;;;;;;;;;;5035706;28;20540;-89
2022/06/14 00:03:57;;;;;;;3.97;2.63;;;;;;;;;;5052895;28;20059;-89
2022/06/14 00:06:28;;;;;;;3.28;2.70;;;;;;;;;;5035575;28;20045;-90
2022/06/14 00:08:55;;;;;;;3.67;2.50;;;;;;;;;;5052798;28;20235;-90
2022/06/14 00:11:23;;;;;;;3.45;2.25;;;;;;;;;;5052721;28;20056;-89
2022/06/14 00:13:51;;;;;;;4.03;2.60;;;;;;;;;;5052553;28;20493;-90
2022/06/14 00:16:19;;;;;;;4.35;2.30;;;;;;;;;;5035075;28;20091;-90
2022/06/14 00:18:46;;;;;;;3.63;2.85;;;;;;;;;;5035627;28;20477;-89
2022/06/14 00:21:15;;;;;;;2.78;2.53;;;;;;;;;;5053152;28;20493;-89
2022/06/14 00:23:42;;;;;;;5.30;3.28;;;;;;;;;;5034979;28;20124;-89
2022/06/14 00:26:11;;;;;;;3.45;3.00;;;;;;;;;;5034751;28;20084;-90
2022/06/14 00:28:39;;;;;;;3.55;2.80;;;;;;;;;;5035035;28;20447;-90
2022/06/14 00:31:09;;;;;;;6.60;3.25;;;;;;;;;;5052532;28;20128;-90
2022/06/14 00:33:36;;;;;;;6.25;3.13;;;;;;;;;;5053794;28;20080;-89
2022/06/14 00:36:05;;;;;;;5.78;3.40;;;;;;;;;;5038616;28;20105;-90
2022/06/14 00:38:33;;;;;;;6.25;3.40;;;;;;;;;;5038398;28;20488;-89
2022/06/14 00:41:01;;;;;;;5.85;3.28;;;;;;;;;;5038526;28;20044;-90
2022/06/14 00:43:29;;;;;;;6.82;3.38;;;;;;;;;;5055948;28;20140;-89
2022/06/14 00:46:10;;;;;;;5.07;3.50;;;;;;;;;;5038544;28;20045;-89
2022/06/14 00:48:38;;;;;;;4.93;3.30;;;;;;;;;;5038540;28;20049;-90
2022/06/14 00:51:25;;;;;;;4.78;3.50;;;;;;;;;;5055584;28;20087;-90
2022/06/14 00:53:56;;;;;;;4.13;3.08;;;;;;;;;;5055695;28;20048;-90
2022/06/14 00:56:25;;;;;;;4.80;3.40;;;;;;;;;;5038229;28;20044;-90
2022/06/14 00:58:58;;;;;;;5.35;3.60;;;;;;;;;;5038335;28;20056;-90
2022/06/14 01:01:27;;;;;;;4.63;3.30;;;;;;;;;;5038120;28;20408;-88
2022/06/14 01:03:57;;;;;;;4.72;3.55;;;;;;;;;;5055840;28;20053;-88
2022/06/14 01:06:28;;;;;;;4.80;3.67;;;;;;;;;;5055634;28;20072;-88
2022/06/14 01:09:06;;;;;;;7.20;3.60;;;;;;;;;;5056190;28;20079;-89
2022/06/14 01:11:47;;;;;;;3.72;3.33;;;;;;;;;;5055617;28;20053;-88
2022/06/14 01:14:17;;;;;;;5.30;3.60;;;;;;;;;;5037874;28;20053;-88
2022/06/14 01:16:44;;;;;;;9.57;3.63;;;;;;;;;;5037959;28;20053;-88
2022/06/14 01:19:19;;;;;;;6.00;3.70;;;;;;;;;;5038125;28;20056;-89
2022/06/14 01:21:50;;;;;;;3.80;3.45;;;;;;;;;;5038193;28;20095;-88
2022/06/14 01:24:17;;;;;;;4.35;3.35;;;;;;;;;;5055098;28;20080;-88
2022/06/14 01:26:44;;;;;;;6.18;3.28;;;;;;;;;;5055490;28;20497;-89
2022/06/14 01:29:12;;;;;;;7.38;3.80;;;;;;;;;;5037954;28;20136;-88
2022/06/14 01:31:39;;;;;;;6.70;3.42;;;;;;;;;;5037819;28;20386;-88
2022/06/14 01:34:08;;;;;;;5.40;3.35;;;;;;;;;;5055324;28;20044;-88
2022/06/14 01:36:38;;;;;;;5.85;3.58;;;;;;;;;;5038738;28;20481;-88
2022/06/14 01:39:08;;;;;;;3.58;3.17;;;;;;;;;;5055067;28;20565;-88
2022/06/14 01:41:43;;;;;;;3.92;3.58;;;;;;;;;;5037656;28;20055;-88
2022/06/14 01:44:23;;;;;;;6.18;3.88;;;;;;;;;;5055138;28;20471;-88
2022/06/14 01:47:12;;;;;;;4.32;3.30;;;;;;;;;;5036345;28;20041;-88
2022/06/14 01:52:57;;;;;;;4.40;3.55;;;;;;;;;;5054920;28;20098;-88
2022/06/14 01:55:34;;;;;;;8.30;3.70;;;;;;;;;;4992572;28;20115;-88
2022/06/14 01:58:01;;;;;;;8.38;4.38;;;;;;;;;;5037117;28;20591;-88
2022/06/14 02:00:34;;;;;;;7.68;4.40;;;;;;;;;;5037254;28;20140;-89
2022/06/14 02:05:58;;;;;;;6.68;4.45;;;;;;;;;;5054200;28;20132;-88
2022/06/14 02:08:29;;;;;;;4.55;4.15;;;;;;;;;;5054269;28;20144;-88
2022/06/14 02:11:12;;;;;;;6.40;4.35;;;;;;;;;;5036921;28;20073;-88
2022/06/14 02:13:42;;;;;;;5.47;4.37;;;;;;;;;;5036939;28;20084;-88
2022/06/14 02:16:14;;;;;;;4.95;4.50;;;;;;;;;;5036973;28;20053;-88
2022/06/14 02:19:01;;;;;;;6.32;4.68;;;;;;;;;;5054179;28;20049;-89
2022/06/14 02:21:28;;;;;;;6.75;4.22;;;;;;;;;;5054141;28;20355;-88
2022/06/14 02:24:01;;;;;;;4.72;4.00;;;;;;;;;;5054412;28;20059;-89
2022/06/14 02:26:32;;;;;;;5.57;4.15;;;;;;;;;;5036981;28;20055;-89
2022/06/14 02:29:04;;;;;;;5.88;4.13;;;;;;;;;;5036800;28;20131;-88
2022/06/14 02:32:01;;;;;;;9.05;4.13;;;;;;;;;;5054418;28;20095;-89
2022/06/14 02:34:30;;;;;;;4.70;4.18;;;;;;;;;;5016636;28;20076;-89
2022/06/14 02:37:05;;;;;;;6.68;4.97;;;;;;;;;;5036948;28;20127;-89
2022/06/14 02:39:35;;;;;;;5.35;4.55;;;;;;;;;;5036323;28;20486;-89
2022/06/14 02:42:05;;;;;;;5.63;4.47;;;;;;;;;;5036517;28;20057;-89
2022/06/14 02:44:37;;;;;;;5.57;4.30;;;;;;;;;;5036369;28;20102;-89
2022/06/14 02:47:14;;;;;;;6.40;4.75;;;;;;;;;;5053901;28;20045;-89
2022/06/14 02:49:47;;;;;;;7.25;4.55;;;;;;;;;;5053791;28;20135;-89
2022/06/14 02:52:14;;;;;;;;;;;;;;;;;;5038174;28;20517;-89
2022/06/14 02:54:48;;;;;;;5.07;4.57;;;;;;;;;;5038200;28;20023;-89
2022/06/14 02:57:24;;;;;;;5.38;4.10;;;;;;;;;;5037630;28;20045;-89
2022/06/14 02:59:57;;;;;;;6.25;4.80;;;;;;;;;;5036031;28;20064;-89
2022/06/14 03:02:27;;;;;;;4.97;4.60;;;;;;;;;;5053776;28;20095;-92
2022/06/14 03:04:54;;;;;;;6.03;5.00;;;;;;;;;;5035820;28;20049;-89
2022/06/14 03:07:27;;;;;;;8.57;5.55;;;;;;;;;;5053509;28;20049;-89
2022/06/14 03:09:54;;;;;;;6.22;4.60;;;;;;;;;;5053749;28;20139;-89
2022/06/14 03:12:21;;;;;;;7.72;5.30;;;;;;;;;;5036181;28;20061;-89
2022/06/14 03:15:00;;;;;;;4.90;4.40;;;;;;;;;;5053080;28;20503;-89
2022/06/14 03:17:39;;;;;;;7.22;4.53;;;;;;;;;;5053364;28;20486;-89
2022/06/14 03:20:09;;;;;;;6.68;5.10;;;;;;;;;;5035998;28;20132;-89
2022/06/14 03:22:39;;;;;;;4.63;4.22;;;;;;;;;;5035930;28;20478;-89
2022/06/14 03:25:30;;;;;;;4.85;4.45;;;;;;;;;;5035443;28;20136;-89
2022/06/14 03:27:57;;;;;;;6.22;5.15;;;;;;;;;;5035547;28;20053;-88
2022/06/14 03:30:32;;;;;;;6.28;5.28;;;;;;;;;;5035590;28;20143;-89
2022/06/14 03:33:03;;;;;;;6.25;5.47;;;;;;;;;;5035867;28;20047;-89
2022/06/14 03:35:33;;;;;;;7.15;5.47;;;;;;;;;;5035612;28;20140;-89
2022/06/14 03:38:03;;;;;;;6.35;5.63;;;;;;;;;;5035959;28;20130;-89
2022/06/14 03:40:31;;;;;;;6.68;5.53;;;;;;;;;;5035792;28;20143;-89
2022/06/14 03:43:00;;;;;;;7.78;5.32;;;;;;;;;;5053147;28;20059;-88
2022/06/14 03:45:35;;;;;;;6.22;4.55;;;;;;;;;;5035031;28;20131;-89
2022/06/14 03:48:04;;;;;;;9.85;5.10;;;;;;;;;;5035796;28;20053;-89
2022/06/14 03:50:45;;;;;;;5.30;4.78;;;;;;;;;;5035491;28;20092;-89
2022/06/14 03:53:29;;;;;;;5.80;4.97;;;;;;;;;;5053025;28;20135;-89
2022/06/14 03:56:02;;;;;;;8.10;5.70;;;;;;;;;;5035555;28;20515;-89
2022/06/14 03:58:44;;;;;;;6.68;5.32;;;;;;;;;;5035386;28;20055;-89
2022/06/14 04:01:11;;;;;;;7.85;5.72;;;;;;;;;;5035283;28;20049;-89
2022/06/14 04:03:48;;;;;;;13.35;7.82;;;;;;;;;;5052965;28;20406;-89
2022/06/14 04:06:29;;;;;;;7.38;6.13;;;;;;;;;;5053196;28;20480;-89
2022/06/14 04:08:56;;;;;;;7.55;5.72;;;;;;;;;;5064142;28;20029;-89
2022/06/14 04:11:37;;;;;;;6.22;5.63;;;;;;;;;;5071278;28;20486;-89
2022/06/14 04:14:04;;;;;;;9.52;6.22;;;;;;;;;;5039377;28;20401;-89
2022/06/14 04:16:52;;;;;;;11.25;5.78;;;;;;;;;;5039012;28;20126;-89
2022/06/14 04:19:29;;;;;;;6.50;5.40;;;;;;;;;;5039378;28;20048;-88
2022/06/14 04:22:02;;;;;;;8.48;5.32;;;;;;;;;;5039181;28;20076;-89
2022/06/14 04:24:39;;;;;;;7.13;5.80;;;;;;;;;;5056376;28;20049;-89
2022/06/14 04:27:12;;;;;;;8.43;5.82;;;;;;;;;;5038981;28;20132;-89
2022/06/14 04:29:40;;;;;;;8.18;5.57;;;;;;;;;;5056554;28;20152;-90
2022/06/14 04:32:18;;;;;;;7.65;5.25;;;;;;;;;;5038629;28;20045;-89
2022/06/14 04:34:48;;;;;;;8.55;4.93;;;;;;;;;;5056590;28;20110;-89
2022/06/14 04:37:19;;;;;;;6.35;4.97;;;;;;;;;;5038991;28;20493;-89
2022/06/14 04:39:53;;;;;;;5.78;4.20;;;;;;;;;;5039085;28;20479;-89
2022/06/14 04:42:20;;;;;;;;;;;;;;;;;;5039101;28;20076;-89
2022/06/14 04:44:50;;;;;;;5.55;3.83;;;;;;;;;;5038676;28;20019;-88
2022/06/14 04:47:21;;;;;;;4.10;3.80;;;;;;;;;;5038758;28;20068;-89
2022/06/14 04:49:57;;;;;;;6.15;3.75;;;;;;;;;;5056459;28;20135;-89
2022/06/14 04:52:28;;;;;;;5.55;3.83;;;;;;;;;;5038809;28;20489;-89
2022/06/14 04:55:08;;;;;;;5.97;3.72;;;;;;;;;;5038234;28;20053;-89
2022/06/14 04:57:53;;;;;;;11.10;3.25;;;;;;;;;;5038535;28;20047;-89
2022/06/14 05:00:22;;;;;;;8.82;3.03;;;;;;;;;;5038216;28;20135;-88
2022/06/14 05:02:53;;;;;;;5.88;2.72;;;;;;;;;;5038338;28;20120;-88
2022/06/14 05:05:27;;;;;;;6.60;2.83;;;;;;;;;;5038112;28;20049;-89
2022/06/14 05:08:10;;;;;;;6.97;2.35;;;;;;;;;;5055766;28;20049;-89
2022/06/14 05:10:46;;;;;;;2.50;2.30;;;;;;;;;;5038476;28;20053;-89
2022/06/14 05:13:17;;;;;;;1.88;1.75;;;;;;;;;;5037909;28;20045;-89
2022/06/14 05:15:47;;;;;;;1.80;1.60;;;;;;;;;;5038110;28;20084;-89
2022/06/14 05:18:18;;;;;;;3.05;2.00;;;;;;;;;;5055450;28;20071;-89
2022/06/14 05:20:49;;;;;;;1.85;1.60;;;;;;;;;;5037731;28;20049;-88
2022/06/14 05:23:19;;;;;;;1.92;1.30;;;;;;;;;;5054888;28;20068;-88
2022/06/14 05:26:02;;;;;;;2.95;1.60;;;;;;;;;;5063206;28;20045;-88
2022/06/14 05:28:39;;;;;;;6.72;2.08;;;;;;;;;;5064338;28;20549;-89
2022/06/14 05:31:12;;;;;;;5.35;1.73;;;;;;;;;;5037554;28;20497;-88
2022/06/14 05:33:39;;;;;;;;;;;;;;;;;;5038206;28;20045;-88
2022/06/14 05:36:16;;;;;;;14.68;2.25;;;;;;;;;;5055095;28;20029;-89
2022/06/14 05:38:56;;;;;;;7.45;2.03;;;;;;;;;;5055151;28;20095;-88
2022/06/14 05:41:45;;;;;;;7.85;2.30;;;;;;;;;;5037491;28;20056;-89
2022/06/14 05:44:13;;;;;;;8.68;2.53;;;;;;;;;;5037171;28;20128;-89
2022/06/14 05:46:47;;;;;;;11.05;2.65;;;;;;;;;;5037711;28;20413;-90
2022/06/14 05:49:20;;;;;;;10.13;2.30;;;;;;;;;;5054841;28;20056;-91
2022/06/14 05:52:00;;;;;;;12.88;2.60;;;;;;;;;;5037595;28;20041;-89
2022/06/14 05:54:34;;;;;;;17.55;3.15;;;;;;;;;;5054585;28;20057;-89
2022/06/14 05:57:05;;;;;;;10.40;2.72;;;;;;;;;;5054807;28;20048;-88
2022/06/14 05:59:36;;;;;;;14.52;2.70;;;;;;;;;;5036937;28;20056;-91
2022/06/14 06:02:10;;;;;;;15.85;2.92;;;;;;;;;;5037414;28;20123;-89
2022/06/14 06:04:50;;;;;;;11.65;2.47;;;;;;;;;;5037110;28;20103;-90
2022/06/14 06:07:23;;;;;;;18.92;4.20;;;;;;;;;;5037378;28;20076;-89
2022/06/14 06:09:53;;;;;;;19.98;3.95;;;;;;;;;;5054419;28;20137;-88
2022/06/14 06:12:35;;;;;;;21.77;3.33;;;;;;;;;;5036752;28;20067;-88
2022/06/14 06:15:05;;;;;;;13.20;2.78;;;;;;;;;;5036844;28;20107;-89
2022/06/14 06:17:39;;;;;;;11.82;3.13;;;;;;;;;;5054395;28;20397;-90
2022/06/14 06:20:13;;;;;;;18.80;4.00;;;;;;;;;;5036886;28;20040;-91
2022/06/14 06:22:44;;;;;;;14.43;3.13;;;;;;;;;;5036853;28;20056;-88
2022/06/14 06:25:13;;;;;;;12.90;2.85;;;;;;;;;;5054001;28;20053;-88
2022/06/14 06:27:42;;;;;;;12.50;2.55;;;;;;;;;;5036616;28;20049;-89
2022/06/14 06:30:17;;;;;;;17.88;2.63;;;;;;;;;;5036614;28;20053;-89
2022/06/14 06:32:44;;;;;;;7.18;2.28;;;;;;;;;;5034938;28;20041;-89
2022/06/14 06:35:12;;;;;;;7.38;2.17;;;;;;;;;;5036406;28;20417;-89
2022/06/14 06:37:42;;;;;;;4.22;1.45;;;;;;;;;;5036457;28;20136;-88
2022/06/14 06:40:13;;;;;;;8.98;2.38;;;;;;;;;;5036448;28;20493;-87
2022/06/14 06:42:49;;;;;;;3.67;1.27;;;;;;;;;;5044999;28;20133;-88
2022/06/14 06:45:25;;;;;;;9.43;1.90;;;;;;;;;;5063070;28;20080;-87
2022/06/14 06:47:52;;;;;;;7.82;2.13;;;;;;;;;;5053953;28;20048;-89
2022/06/14 06:50:22;;;;;;;11.52;1.90;;;;;;;;;;5036404;28;20136;-90
2022/06/14 06:52:54;;;;;;;4.60;1.60;;;;;;;;;;5036311;28;20136;-87
2022/06/14 06:55:27;;;;;;;3.50;1.30;;;;;;;;;;5053755;28;20061;-89
2022/06/14 06:57:57;;;;;;;5.30;1.30;;;;;;;;;;5036378;28;20048;-89
2022/06/14 07:00:25;;;;;;;4.20;1.33;;;;;;;;;;5036056;28;20331;-89
2022/06/14 07:02:54;;;;;;;3.70;1.05;;;;;;;;;;5036091;28;20132;-89
2022/06/14 07:05:22;;;;;;;3.80;1.23;;;;;;;;;;5053200;28;20079;-90
2022/06/14 07:07:59;;;;;;;3.17;1.00;;;;;;;;;;5036211;28;20456;-87
2022/06/14 07:10:29;;;;;;;5.47;0.95;;;;;;;;;;5036162;28;20049;-86
2022/06/14 07:13:00;;;;;;;6.25;0.95;;;;;;;;;;5053643;28;20482;-87
2022/06/14 07:15:36;;;;;;;3.45;1.00;;;;;;;;;;5035614;28;20140;-88
2022/06/14 07:18:12;;;;;;;5.45;1.27;;;;;;;;;;5053497;28;20045;-90
2022/06/14 07:20:53;;;;;;;3.35;0.90;;;;;;;;;;5053547;28;20528;-88
2022/06/14 07:23:28;;;;;;;3.50;0.88;;;;;;;;;;5036184;28;20136;-89
2022/06/14 07:26:05;;;;;;;5.78;1.00;;;;;;;;;;5035745;28;20053;-85
2022/06/14 07:28:32;;;;;;;2.60;1.00;;;;;;;;;;5035508;28;20055;-86
2022/06/14 07:31:04;;;;;;;4.82;0.98;;;;;;;;;;5053424;28;20485;-86
2022/06/14 07:33:32;;;;;;;3.53;0.88;;;;;;;;;;5036219;28;20048;-86
2022/06/14 07:36:02;;;;;;;3.65;1.00;;;;;;;;;;5053565;28;20164;-87
2022/06/14 07:38:32;;;;;;;2.58;0.93;;;;;;;;;;5036425;28;20496;-86
2022/06/14 07:41:15;;;;;;;5.68;1.20;;;;;;;;;;5053221;28;20505;-86
2022/06/14 07:43:55;;;;;;;1.80;0.75;;;;;;;;;;5054747;28;20056;-85
2022/06/14 07:46:27;;;;;;;2.70;0.90;;;;;;;;;;5057287;28;20055;-88
2022/06/14 07:48:58;;;;;;;3.15;1.00;;;;;;;;;;5057646;28;20473;-85
2022/06/14 07:51:40;;;;;;;4.90;1.50;;;;;;;;;;5039911;28;20408;-86
2022/06/14 07:54:10;;;;;;;3.80;0.77;;;;;;;;;;5039804;28;20053;-86
2022/06/14 07:56:42;;;;;;;4.63;1.35;;;;;;;;;;5057606;28;20080;-86
2022/06/14 07:59:11;;;;;;;2.72;0.90;;;;;;;;;;5043424;28;20120;-87
2022/06/14 08:01:42;;;;;;;5.22;0.75;;;;;;;;;;5069226;28;20049;-88
2022/06/14 08:04:13;;;;;;;3.88;1.45;;;;;;;;;;5040282;28;20053;-87
2022/06/14 08:06:40;;;;;;;3.47;0.95;;;;;;;;;;5057337;28;20054;-87
2022/06/14 08:09:11;;;;;;;11.20;1.38;;;;;;;;;;5039716;28;20049;-88
2022/06/14 08:11:47;;;;;;;3.83;0.98;;;;;;;;;;5057068;28;20095;-85
2022/06/14 08:14:18;;;;;;;1.42;0.85;;;;;;;;;;5056543;28;20052;-84
2022/06/14 08:16:45;;;;;;;2.45;1.20;;;;;;;;;;5039386;28;20063;-84
2022/06/14 08:19:19;;;;;;;1.83;0.80;;;;;;;;;;5039132;28;20127;-84
2022/06/14 08:21:49;;;;;;;3.38;0.93;;;;;;;;;;5039124;28;20459;-86
2022/06/14 08:24:26;;;;;;;4.43;1.00;;;;;;;;;;5039061;28;20053;-86
2022/06/14 08:27:01;;;;;;;3.03;0.82;;;;;;;;;;5039040;28;20302;-86
2022/06/14 08:29:32;;;;;;;2.97;1.00;;;;;;;;;;5039068;28;20052;-86
2022/06/14 08:32:08;;;;;;;4.85;0.80;;;;;;;;;;5038932;28;20057;-85
2022/06/14 08:34:44;;;;;;;3.58;1.30;;;;;;;;;;5038736;28;20053;-85
2022/06/14 08:37:23;;;;;;;1.13;0.70;;;;;;;;;;5038737;28;20102;-88
2022/06/14 08:39:52;;;;;;;2.03;0.90;;;;;;;;;;5056394;28;20091;-84
2022/06/14 08:42:29;;;;;;;4.13;0.98;;;;;;;;;;5038938;28;20140;-85
2022/06/14 08:45:01;;;;;;;3.28;0.93;;;;;;;;;;5038628;28;20124;-87
2022/06/14 08:47:29;;;;;;;1.67;1.00;;;;;;;;;;5038761;28;20089;-83
2022/06/14 08:50:11;;;;;;;1.50;0.70;;;;;;;;;;5038421;28;20045;-85
2022/06/14 08:52:57;;;;;;;5.55;1.13;;;;;;;;;;5038391;28;20143;-90
2022/06/14 08:55:41;;;;;;;3.83;0.93;;;;;;;;;;5037967;28;20416;-86
2022/06/14 08:58:18;;;;;;;6.07;1.17;;;;;;;;;;5055976;28;20053;-86
2022/06/14 09:01:04;;;;;;;3.15;0.90;;;;;;;;;;5038025;28;20077;-86
2022/06/14 09:03:50;;;;;;;3.10;1.08;;;;;;;;;;5038410;28;20076;-92
2022/06/14 09:06:18;;;;;;;1.85;0.75;;;;;;;;;;5055989;28;20110;-87
2022/06/14 09:08:54;;;;;;;5.55;0.82;;;;;;;;;;5038361;28;20075;-88
2022/06/14 09:11:40;;;;;;;1.92;0.70;;;;;;;;;;5038194;28;20567;-86
2022/06/14 09:14:13;;;;;;;4.93;0.95;;;;;;;;;;5038350;28;20087;-85
2022/06/14 09:16:54;;;;;;;3.25;1.15;;;;;;;;;;5048438;28;20063;-86
2022/06/14 09:19:26;;;;;;;1.13;0.88;;;;;;;;;;5046341;28;20057;-85
2022/06/14 09:22:04;;;;;;;2.80;0.70;;;;;;;;;;5038393;28;20088;-93
2022/06/14 09:24:52;;;;;;;1.80;0.77;;;;;;;;;;5038141;28;20060;-85
2022/06/14 09:27:34;;;;;;;2.30;0.80;;;;;;;;;;5037818;28;20127;-87
2022/06/14 09:30:13;;;;;;;4.22;0.88;;;;;;;;;;5038261;28;20099;-87
2022/06/14 09:35:53;;;;;;;1.48;0.80;;;;;;;;;;5055249;28;20049;-87
2022/06/14 09:38:32;;;;;;;1.80;0.90;;;;;;;;;;5038087;28;20473;-85
2022/06/14 09:41:08;;;;;;;5.40;0.90;;;;;;;;;;5055032;28;20124;-88
2022/06/14 09:43:59;;;;;;;4.22;0.77;;;;;;;;;;5037521;28;20051;-90
2022/06/14 09:46:38;;;;;;;5.53;1.38;;;;;;;;;;5037522;28;20102;-86
2022/06/14 09:49:24;;;;;;;6.03;1.17;;;;;;;;;;5037540;28;20055;-85
2022/06/14 09:52:10;;;;;;;5.60;0.90;;;;;;;;;;5037082;28;20517;-85
2022/06/14 09:54:59;;;;;;;1.80;0.63;;;;;;;;;;5038449;28;20057;-86
2022/06/14 09:57:45;;;;;;;3.42;0.80;;;;;;;;;;5054833;28;20049;-86
2022/06/14 10:00:32;;;;;;;2.92;0.68;;;;;;;;;;5054924;28;20525;-85
2022/06/14 10:02:59;;;;;;;2.15;0.80;;;;;;;;;;5037223;28;20454;-84
2022/06/14 10:05:52;;;;;;;3.33;0.98;;;;;;;;;;5036798;28;20053;-87
2022/06/14 10:08:23;;;;;;;4.57;0.90;;;;;;;;;;5054768;28;20088;-85
2022/06/14 10:10:53;;;;;;;5.03;1.30;;;;;;;;;;5054857;28;20072;-85
2022/06/14 10:13:33;;;;;;;4.65;1.05;;;;;;;;;;5036929;28;20059;-87
2022/06/14 10:16:12;;;;;;;1.50;0.70;;;;;;;;;;5036913;28;20134;-86
2022/06/14 10:18:52;;;;;;;1.38;0.68;;;;;;;;;;5036953;28;20113;-89
2022/06/14 10:21:29;;;;;;;5.38;0.93;;;;;;;;;;5036631;28;20425;-85
2022/06/14 10:24:06;;;;;;;8.88;1.20;;;;;;;;;;5037144;28;20489;-90
2022/06/14 10:29:34;;;;;;;1.10;0.90;;;;;;;;;;5054244;28;20140;-86
2022/06/14 10:32:19;;;;;;;2.85;0.98;;;;;;;;;;5054426;28;20298;-89
2022/06/14 10:34:52;;;;;;;1.63;0.70;;;;;;;;;;5070297;28;20037;-86
2022/06/14 10:37:35;;;;;;;4.15;1.10;;;;;;;;;;5038608;28;20072;-85
2022/06/14 10:40:09;;;;;;;3.42;0.80;;;;;;;;;;5036465;28;20131;-84
2022/06/14 10:42:42;;;;;;;1.48;0.65;;;;;;;;;;5054171;28;20494;-88
2022/06/14 10:45:16;;;;;;;2.67;0.80;;;;;;;;;;5035830;28;20067;-87
2022/06/14 10:47:47;;;;;;;3.38;0.90;;;;;;;;;;5053822;28;20166;-85
2022/06/14 10:50:23;;;;;;;3.20;0.85;;;;;;;;;;5036384;28;20147;-84
2022/06/14 10:53:09;;;;;;;5.82;0.70;;;;;;;;;;5036085;28;20084;-84
2022/06/14 10:55:58;;;;;;;3.50;0.85;;;;;;;;;;5053754;28;20048;-85
2022/06/14 10:58:41;;;;;;;4.85;1.35;;;;;;;;;;5035840;28;20051;-85
2022/06/14 11:01:17;;;;;;;2.65;0.82;;;;;;;;;;5053351;28;20124;-85
2022/06/14 11:04:03;;;;;;;1.83;0.70;;;;;;;;;;5035930;28;20153;-84
2022/06/14 11:06:31;;;;;;;1.92;0.68;;;;;;;;;;5035389;28;20053;-87
2022/06/14 11:08:58;;;;;;;3.83;0.77;;;;;;;;;;5036216;28;20128;-86
2022/06/14 11:11:40;;;;;;;4.72;0.90;;;;;;;;;;5036050;28;20045;-84
2022/06/14 11:14:12;;;;;;;5.63;1.20;;;;;;;;;;5035895;28;20131;-85
2022/06/14 11:17:09;;;;;;;3.08;0.88;;;;;;;;;;5035637;28;20071;-84
2022/06/14 11:19:36;;;;;;;3.28;0.70;;;;;;;;;;5015976;28;20084;-85
2022/06/14 11:22:22;;;;;;;2.10;0.80;;;;;;;;;;5035357;28;20059;-84
2022/06/14 11:25:02;;;;;;;1.95;0.50;;;;;;;;;;5035817;28;20104;-87
2022/06/14 11:27:29;;;;;;;2.92;0.75;;;;;;;;;;5035393;28;20080;-86
2022/06/14 11:29:56;;;;;;;2.03;0.70;;;;;;;;;;5053160;28;20048;-85
2022/06/14 11:32:32;;;;;;;2.95;1.02;;;;;;;;;;5053130;28;20106;-89
2022/06/14 11:35:04;;;;;;;2.15;0.63;;;;;;;;;;5035764;28;20094;-85
2022/06/14 11:37:37;;;;;;;5.10;1.00;;;;;;;;;;5052912;28;20084;-85
2022/06/14 11:40:15;;;;;;;1.70;0.50;;;;;;;;;;5035685;28;20137;-87
2022/06/14 11:42:58;;;;;;;1.13;0.50;;;;;;;;;;5036690;28;20087;-84
2022/06/14 11:45:26;;;;;;;1.65;0.57;;;;;;;;;;5052583;28;20512;-85
2022/06/14 11:48:04;;;;;;;1.98;0.82;;;;;;;;;;5035207;28;20051;-87
2022/06/14 11:50:47;;;;;;;5.18;0.60;;;;;;;;;;5036310;28;20045;-89
2022/06/14 11:53:30;;;;;;;6.30;0.82;;;;;;;;;;5068010;28;20095;-87
2022/06/14 11:56:03;;;;;;;8.10;0.70;;;;;;;;;;5035818;28;20056;-86
2022/06/14 11:58:50;;;;;;;0.67;0.60;;;;;;;;;;5035322;28;20086;-86
2022/06/14 12:01:36;;;;;;;2.05;0.70;;;;;;;;;;5031900;28;20734;-87
2022/06/14 12:04:28;;;;;;;3.05;0.80;;;;;;;;;;5031934;28;20458;-86
2022/06/14 12:07:14;;;;;;;3.83;0.82;;;;;;;;;;5031946;28;20057;-87
2022/06/14 12:09:51;;;;;;;3.15;0.80;;;;;;;;;;5032150;28;20425;-83
2022/06/14 12:12:26;;;;;;;2.00;0.70;;;;;;;;;;5033390;28;20513;-85
2022/06/14 12:14:57;;;;;;;2.33;0.57;;;;;;;;;;5032539;28;20593;-86
2022/06/14 12:17:30;;;;;;;2.30;0.70;;;;;;;;;;5032065;28;20112;-87
2022/06/14 12:20:03;;;;;;;3.72;0.63;;;;;;;;;;5031788;28;20057;-85
2022/06/14 12:22:39;;;;;;;2.42;0.60;;;;;;;;;;5033117;28;20108;-85
2022/06/14 12:28:18;;;;;;;1.40;0.90;;;;;;;;;;5033301;28;20144;-89
2022/06/14 12:30:47;;;;;;;1.15;0.50;;;;;;;;;;5018867;28;20490;-89
2022/06/14 12:33:30;;;;;;;1.83;0.60;;;;;;;;;;5036636;28;20081;-88
2022/06/14 12:36:01;;;;;;;0.97;0.50;;;;;;;;;;5035589;28;20405;-84
2022/06/14 12:38:31;;;;;;;2.30;0.73;;;;;;;;;;5036771;28;20137;-87
2022/06/14 12:41:07;;;;;;;4.53;0.80;;;;;;;;;;5035777;28;20046;-85
2022/06/14 12:43:52;;;;;;;3.80;0.50;;;;;;;;;;5036378;28;20053;-86
2022/06/14 12:46:24;;;;;;;1.40;0.73;;;;;;;;;;5035965;28;20589;-85
2022/06/14 12:49:02;;;;;;;2.30;0.52;;;;;;;;;;5036294;28;20445;-83
2022/06/14 12:51:32;;;;;;;3.25;0.60;;;;;;;;;;5035083;28;20057;-84
2022/06/14 12:54:06;;;;;;;1.20;0.90;;;;;;;;;;5034819;28;20052;-84
2022/06/14 12:56:51;;;;;;;3.42;0.70;;;;;;;;;;5036569;28;20085;-85
2022/06/14 12:59:25;;;;;;;1.60;0.75;;;;;;;;;;5037107;28;20091;-87
2022/06/14 13:02:01;;;;;;;1.88;0.60;;;;;;;;;;5038289;28;20045;-83
2022/06/14 13:04:31;;;;;;;1.38;0.57;;;;;;;;;;5055970;28;20076;-86
2022/06/14 13:07:10;;;;;;;3.15;0.90;;;;;;;;;;5038354;28;20498;-85
2022/06/14 13:09:50;;;;;;;1.33;0.68;;;;;;;;;;5043566;28;20149;-82
2022/06/14 13:12:44;;;;;;;3.03;0.85;;;;;;;;;;5041395;28;20128;-84
2022/06/14 13:15:11;;;;;;;;;;;;;;;;;;5038579;28;20091;-85
2022/06/14 13:17:52;;;;;;;1.92;0.70;;;;;;;;;;5037982;28;19967;-87
2022/06/14 13:20:27;;;;;;;2.55;0.65;;;;;;;;;;5038099;28;20501;-87
2022/06/14 13:23:05;;;;;;;1.45;0.60;;;;;;;;;;5038565;28;20135;-91
2022/06/14 13:25:40;;;;;;;1.35;0.50;;;;;;;;;;5055782;28;20059;-83
2022/06/14 13:28:10;;;;;;;3.60;0.60;;;;;;;;;;5037871;28;20106;-90
2022/06/14 13:31:06;;;;;;;1.73;0.70;;;;;;;;;;5056110;28;20080;-87
2022/06/14 13:33:52;;;;;;;2.40;0.70;;;;;;;;;;5017622;28;20045;-89
2022/06/14 13:36:40;;;;;;;5.63;0.70;;;;;;;;;;5038086;28;20153;-85
2022/06/14 13:39:18;;;;;;;2.08;0.60;;;;;;;;;;5038321;28;20051;-87
2022/06/14 13:42:01;;;;;;;2.65;0.75;;;;;;;;;;5038484;28;20067;-85
2022/06/14 13:44:37;;;;;;;2.40;0.90;;;;;;;;;;5056308;28;20045;-86
2022/06/14 13:47:22;;;;;;;3.25;0.95;;;;;;;;;;5038595;28;20079;-83
2022/06/14 13:49:59;;;;;;;1.80;0.60;;;;;;;;;;5038744;28;20412;-85
2022/06/14 13:52:29;;;;;;;2.72;0.40;;;;;;;;;;5057038;28;20460;-86
2022/06/14 13:55:15;;;;;;;2.70;0.60;;;;;;;;;;5056288;28;20568;-91
2022/06/14 13:57:47;;;;;;;1.63;0.80;;;;;;;;;;5037307;28;20576;-84
2022/06/14 14:00:28;;;;;;;3.50;0.65;;;;;;;;;;5036611;28;20148;-83
2022/06/14 14:02:58;;;;;;;2.47;0.50;;;;;;;;;;5037092;28;20128;-85
2022/06/14 14:05:33;;;;;;;2.67;0.90;;;;;;;;;;5036539;28;20497;-86
2022/06/14 14:08:09;;;;;;;4.72;0.93;;;;;;;;;;5054653;28;20055;-83
2022/06/14 14:10:42;;;;;;;8.43;1.00;;;;;;;;;;5054566;28;20045;-88
2022/06/14 14:13:25;;;;;;;4.00;0.93;;;;;;;;;;5037118;28;20053;-85
2022/06/14 14:15:55;;;;;;;2.85;0.50;;;;;;;;;;5037548;28;20463;-85
2022/06/14 14:18:27;;;;;;;1.92;0.65;;;;;;;;;;5036665;28;20132;-84
2022/06/14 14:20:59;;;;;;;2.10;0.60;;;;;;;;;;5036684;28;20557;-83
2022/06/14 14:23:42;;;;;;;1.67;0.60;;;;;;;;;;5036994;28;20085;-87
2022/06/14 14:26:19;;;;;;;2.70;0.75;;;;;;;;;;5038344;28;20045;-87
2022/06/14 14:28:55;;;;;;;2.13;0.85;;;;;;;;;;5051097;28;20053;-85
2022/06/14 14:31:32;;;;;;;2.25;0.80;;;;;;;;;;5054872;28;20084;-89
2022/06/14 14:34:04;;;;;;;2.13;0.80;;;;;;;;;;5036694;28;20143;-86
2022/06/14 14:36:40;;;;;;;1.13;0.65;;;;;;;;;;5036868;28;20041;-88
2022/06/14 14:39:34;;;;;;;1.30;0.57;;;;;;;;;;5036782;28;20153;-85
2022/06/14 14:42:43;;;;;;;2.75;0.95;;;;;;;;;;5037730;28;20860;-85
2022/06/14 14:45:12;;;;;;;2.95;0.50;;;;;;;;;;5036303;28;20498;-85
2022/06/14 14:47:49;;;;;;;1.83;0.80;;;;;;;;;;5036339;28;20044;-86
2022/06/14 14:50:29;;;;;;;1.17;0.63;;;;;;;;;;5036450;28;20581;-87
2022/06/14 14:52:56;;;;;;;2.20;0.52;;;;;;;;;;5053563;28;20139;-85
2022/06/14 14:55:38;;;;;;;3.05;0.60;;;;;;;;;;5053703;28;20523;-85
2022/06/14 14:58:25;;;;;;;1.38;0.80;;;;;;;;;;5036318;28;20127;-86
2022/06/14 15:06:38;;;;;;;1.08;0.68;;;;;;;;;;5053574;28;20045;-84
2022/06/14 15:09:14;;;;;;;2.58;0.73;;;;;;;;;;5036064;28;20127;-85
2022/06/14 15:11:53;;;;;;;2.88;0.73;;;;;;;;;;5036260;28;20567;-87
2022/06/14 15:14:23;;;;;;;4.15;0.50;;;;;;;;;;5035809;28;20056;-86
2022/06/14 15:19:54;;;;;;;3.20;0.82;;;;;;;;;;5036055;28;20503;-87
2022/06/14 15:19:56;;;;;;;2.50;0.80;;;;;;;;;;5053414;28;20056;-88
2022/06/14 15:22:26;;;;;;;0.50;0.40;;;;;;;;;;5035689;28;20076;-85
2022/06/14 15:24:59;;;;;;;3.45;0.90;;;;;;;;;;5035471;28;20059;-86
2022/06/14 15:27:40;;;;;;;1.48;0.98;;;;;;;;;;5035863;28;20098;-82
2022/06/14 15:30:09;;;;;;;5.43;0.57;;;;;;;;;;5053053;28;20045;-85
2022/06/14 15:32:36;;;;;;;1.27;0.57;;;;;;;;;;5035592;28;20049;-86
2022/06/14 15:35:18;;;;;;;2.78;0.68;;;;;;;;;;5035342;28;20089;-85
2022/06/14 15:38:05;;;;;;;2.10;0.80;;;;;;;;;;5037298;28;20060;-88
2022/06/14 15:40:33;;;;;;;2.45;0.90;;;;;;;;;;5053701;28;20549;-92
2022/06/14 15:43:07;;;;;;;4.32;0.70;;;;;;;;;;5053858;28;20044;-88
2022/06/14 15:45:43;;;;;;;1.92;0.60;;;;;;;;;;5063111;28;20132;-85
2022/06/14 15:48:28;;;;;;;3.92;0.95;;;;;;;;;;5035803;28;20053;-86
2022/06/14 15:51:00;;;;;;;4.90;0.90;;;;;;;;;;5036300;28;20083;-85